createdAt,value
2016-11-13T00:00:41.712Z,0
2016-11-13T00:01:57.644Z,0
2016-11-13T00:03:13.827Z,0
2016-11-13T00:04:29.313Z,0
2016-11-13T00:05:44.871Z,0
2016-11-13T00:06:59.512Z,0
2016-11-13T00:08:15.906Z,0
2016-11-13T00:09:30.156Z,0
2016-11-13T00:10:44.778Z,0
2016-11-13T00:11:57.798Z,0
2016-11-13T00:13:12.197Z,0
2016-11-13T00:14:27.226Z,0
2016-11-13T00:15:40.113Z,0
2016-11-13T00:16:53.321Z,0
2016-11-13T00:18:08.057Z,0
2016-11-13T00:19:21.680Z,0
2016-11-13T00:20:36.456Z,0
2016-11-13T00:21:48.149Z,0
2016-11-13T00:23:04.436Z,0
2016-11-13T00:24:20.860Z,0
2016-11-13T00:25:32.435Z,0
2016-11-13T00:26:48.463Z,0
2016-11-13T00:28:03.688Z,0
2016-11-13T00:29:18.118Z,0
2016-11-13T00:30:34.314Z,0
2016-11-13T00:31:45.852Z,0
2016-11-13T00:33:00.381Z,0
2016-11-13T00:34:15.154Z,0
2016-11-13T00:35:29.803Z,0
2016-11-13T00:36:44.426Z,0
2016-11-13T00:37:59.376Z,0
2016-11-13T00:39:14.226Z,0
2016-11-13T00:40:28.693Z,0
2016-11-13T00:41:44.714Z,0
2016-11-13T00:43:00.464Z,0
2016-11-13T00:44:14.666Z,0
2016-11-13T00:45:27.899Z,0
2016-11-13T00:46:40.617Z,0
2016-11-13T00:47:55.076Z,0
2016-11-13T00:49:11.465Z,0
2016-11-13T00:50:27.853Z,0
2016-11-13T00:51:44.052Z,0
2016-11-13T00:52:58.431Z,0
2016-11-13T00:54:09.763Z,0
2016-11-13T00:55:23.837Z,0
2016-11-13T00:56:36.967Z,0
2016-11-13T00:57:49.723Z,0
2016-11-13T00:59:02.831Z,0
2016-11-13T01:00:17.006Z,0
2016-11-13T01:01:31.248Z,0
2016-11-13T01:02:47.797Z,0
2016-11-13T01:04:02.210Z,0
2016-11-13T01:05:15.350Z,0
2016-11-13T01:06:29.621Z,0
2016-11-13T01:07:46.215Z,0
2016-11-13T01:09:00.254Z,0
2016-11-13T01:10:14.678Z,0
2016-11-13T01:11:29.784Z,0
2016-11-13T01:12:42.371Z,0
2016-11-13T01:13:58.311Z,0
2016-11-13T01:15:12.972Z,0
2016-11-13T01:16:26.206Z,0
2016-11-13T01:17:42.590Z,0
2016-11-13T01:18:56.666Z,0
2016-11-13T01:20:11.748Z,0
2016-11-13T01:21:24.976Z,0
2016-11-13T01:22:41.728Z,0
2016-11-13T01:23:57.965Z,0
2016-11-13T01:25:12.198Z,0
2016-11-13T01:26:26.755Z,0
2016-11-13T01:27:41.774Z,0
2016-11-13T01:28:57.625Z,0
2016-11-13T01:30:10.581Z,0
2016-11-13T01:31:26.795Z,0
2016-11-13T01:32:42.990Z,0
2016-11-13T01:33:57.874Z,0
2016-11-13T01:35:14.302Z,0
2016-11-13T01:36:27.096Z,0
2016-11-13T01:37:43.508Z,0
2016-11-13T01:38:58.315Z,0
2016-11-13T01:40:12.924Z,0
2016-11-13T01:41:29.137Z,0
2016-11-13T01:42:42.124Z,0
2016-11-13T01:43:57.819Z,0
2016-11-13T01:45:12.763Z,0
2016-11-13T01:46:25.698Z,0
2016-11-13T01:47:40.457Z,0
2016-11-13T01:48:53.830Z,0
2016-11-13T01:50:06.796Z,0
2016-11-13T01:51:23.158Z,0
2016-11-13T01:52:37.405Z,0
2016-11-13T01:53:50.045Z,0
2016-11-13T01:55:04.356Z,0
2016-11-13T01:56:18.773Z,0
2016-11-13T01:57:34.950Z,0
2016-11-13T01:58:47.855Z,0
2016-11-13T01:59:59.423Z,0
2016-11-13T02:01:14.160Z,0
2016-11-13T02:02:28.982Z,0
2016-11-13T02:03:44.306Z,0
2016-11-13T02:04:56.247Z,0
2016-11-13T02:06:12.289Z,0
2016-11-13T02:07:25.353Z,0
2016-11-13T02:08:41.570Z,0
2016-11-13T02:09:56.701Z,0
2016-11-13T02:11:10.938Z,0
2016-11-13T02:12:26.793Z,0
2016-11-13T02:13:41.618Z,0
2016-11-13T02:14:57.619Z,0
2016-11-13T02:16:10.577Z,0
2016-11-13T02:17:23.144Z,0
2016-11-13T02:18:38.435Z,0
2016-11-13T02:19:52.886Z,0
2016-11-13T02:21:08.606Z,0
2016-11-13T02:22:24.442Z,0
2016-11-13T02:23:38.408Z,0
2016-11-13T02:24:54.066Z,0
2016-11-13T02:26:08.603Z,0
2016-11-13T02:27:24.460Z,0
2016-11-13T02:28:38.872Z,0
2016-11-13T02:29:51.817Z,0
2016-11-13T02:31:05.117Z,0
2016-11-13T02:32:18.294Z,0
2016-11-13T02:33:32.863Z,0
2016-11-13T02:34:49.093Z,0
2016-11-13T02:36:01.946Z,0
2016-11-13T02:37:15.294Z,0
2016-11-13T02:38:31.298Z,0
2016-11-13T02:39:46.540Z,0
2016-11-13T02:41:02.406Z,0
2016-11-13T02:42:18.427Z,0
2016-11-13T02:43:33.398Z,0
2016-11-13T02:44:46.575Z,0
2016-11-13T02:46:00.593Z,0
2016-11-13T02:47:13.590Z,0
2016-11-13T02:48:26.885Z,0
2016-11-13T02:49:40.045Z,0
2016-11-13T02:50:56.284Z,0
2016-11-13T02:52:10.497Z,0
2016-11-13T02:53:23.481Z,0
2016-11-13T02:54:39.873Z,0
2016-11-13T02:55:55.525Z,0
2016-11-13T02:57:12.104Z,0
2016-11-13T02:58:28.292Z,0
2016-11-13T02:59:41.684Z,0
2016-11-13T03:00:57.193Z,0
2016-11-13T03:02:11.770Z,0
2016-11-13T03:03:25.812Z,0
2016-11-13T03:04:42.323Z,0
2016-11-13T03:05:57.104Z,0
2016-11-13T03:07:12.612Z,0
2016-11-13T03:08:27.020Z,0
2016-11-13T03:09:43.227Z,0
2016-11-13T03:10:57.809Z,0
2016-11-13T03:12:10.561Z,0
2016-11-13T03:13:26.034Z,0
2016-11-13T03:14:40.209Z,0
2016-11-13T03:15:56.263Z,0
2016-11-13T03:17:11.441Z,0
2016-11-13T03:18:24.442Z,0
2016-11-13T03:19:36.015Z,0
2016-11-13T03:20:51.925Z,0
2016-11-13T03:22:07.766Z,0
2016-11-13T03:23:23.633Z,0
2016-11-13T03:24:39.521Z,0
2016-11-13T03:25:55.744Z,0
2016-11-13T03:27:09.971Z,0
2016-11-13T03:28:25.517Z,0
2016-11-13T03:29:39.924Z,0
2016-11-13T03:30:56.680Z,0
2016-11-13T03:32:09.465Z,0
2016-11-13T03:33:22.595Z,0
2016-11-13T03:34:34.330Z,0
2016-11-13T03:35:47.353Z,0
2016-11-13T03:37:03.556Z,0
2016-11-13T03:38:18.131Z,0
2016-11-13T03:39:33.780Z,0
2016-11-13T03:40:49.622Z,0
2016-11-13T03:42:02.279Z,0
2016-11-13T03:43:16.585Z,0
2016-11-13T03:44:29.539Z,0
2016-11-13T03:45:43.744Z,0
2016-11-13T03:46:59.393Z,0
2016-11-13T03:48:14.322Z,0
2016-11-13T03:49:27.803Z,0
2016-11-13T03:50:42.451Z,0
2016-11-13T03:51:55.732Z,0
2016-11-13T03:53:10.121Z,0
2016-11-13T03:54:25.993Z,0
2016-11-13T03:55:40.517Z,0
2016-11-13T03:56:56.967Z,0
2016-11-13T03:58:13.539Z,0
2016-11-13T03:59:27.996Z,0
2016-11-13T04:00:43.854Z,0
2016-11-13T04:01:58.205Z,0
2016-11-13T04:03:12.802Z,0
2016-11-13T04:04:27.040Z,0
2016-11-13T04:05:40.099Z,0
2016-11-13T04:06:54.520Z,0
2016-11-13T04:08:08.933Z,0
2016-11-13T04:09:21.834Z,0
2016-11-13T04:10:36.050Z,0
2016-11-13T04:11:51.344Z,0
2016-11-13T04:13:04.634Z,0
2016-11-13T04:14:18.662Z,0
2016-11-13T04:15:32.157Z,0
2016-11-13T04:16:45.905Z,0
2016-11-13T04:18:01.572Z,0
2016-11-13T04:19:15.988Z,0
2016-11-13T04:20:30.638Z,0
2016-11-13T04:21:45.197Z,0
2016-11-13T04:22:59.696Z,0
2016-11-13T04:24:13.756Z,0
2016-11-13T04:25:26.710Z,0
2016-11-13T04:26:42.099Z,0
2016-11-13T04:27:58.224Z,0
2016-11-13T04:29:12.830Z,0
2016-11-13T04:30:28.295Z,0
2016-11-13T04:31:42.528Z,0
2016-11-13T04:32:55.466Z,0
2016-11-13T04:34:11.468Z,0
2016-11-13T04:35:25.731Z,0
2016-11-13T04:36:38.990Z,0
2016-11-13T04:37:53.845Z,0
2016-11-13T04:39:07.141Z,0
2016-11-13T04:40:23.558Z,0
2016-11-13T04:41:39.292Z,0
2016-11-13T04:42:51.939Z,0
2016-11-13T04:44:06.171Z,0
2016-11-13T04:45:22.118Z,0
2016-11-13T04:46:38.175Z,0
2016-11-13T04:47:53.749Z,0
2016-11-13T04:49:09.748Z,0
2016-11-13T04:50:26.149Z,0
2016-11-13T04:51:39.891Z,0
2016-11-13T04:52:54.653Z,0
2016-11-13T04:54:07.275Z,0
2016-11-13T04:55:21.500Z,0
2016-11-13T04:56:34.251Z,0
2016-11-13T04:57:50.178Z,0
2016-11-13T04:59:04.463Z,0
2016-11-13T05:00:17.746Z,0
2016-11-13T05:01:30.538Z,0
2016-11-13T05:02:43.557Z,0
2016-11-13T05:03:58.020Z,0
2016-11-13T05:05:13.670Z,0
2016-11-13T05:06:28.262Z,0
2016-11-13T05:07:44.075Z,0
2016-11-13T05:08:58.844Z,0
2016-11-13T05:10:15.803Z,0
2016-11-13T05:11:31.452Z,0
2016-11-13T05:12:47.269Z,0
2016-11-13T05:14:03.458Z,0
2016-11-13T05:15:16.700Z,0
2016-11-13T05:16:30.776Z,0
2016-11-13T05:17:46.893Z,0
2016-11-13T05:19:01.297Z,0
2016-11-13T05:20:14.168Z,0
2016-11-13T05:21:30.097Z,0
2016-11-13T05:22:44.321Z,0
2016-11-13T05:23:59.622Z,0
2016-11-13T05:25:13.867Z,0
2016-11-13T05:26:27.370Z,0
2016-11-13T05:27:41.750Z,0
2016-11-13T05:28:57.026Z,0
2016-11-13T05:30:12.684Z,0
2016-11-13T05:31:26.585Z,0
2016-11-13T05:32:40.755Z,0
2016-11-13T05:33:53.283Z,0
2016-11-13T05:35:08.180Z,0
2016-11-13T05:36:22.793Z,0
2016-11-13T05:37:35.585Z,0
2016-11-13T05:38:49.950Z,0
2016-11-13T05:40:03.952Z,0
2016-11-13T05:41:20.542Z,0
2016-11-13T05:42:35.176Z,0
2016-11-13T05:43:50.182Z,0
2016-11-13T05:45:04.761Z,0
2016-11-13T05:46:20.955Z,0
2016-11-13T05:47:36.279Z,0
2016-11-13T05:48:51.114Z,0
2016-11-13T05:50:05.498Z,0
2016-11-13T05:51:21.681Z,0
2016-11-13T05:52:35.932Z,0
2016-11-13T05:53:50.134Z,0
2016-11-13T05:55:03.503Z,0
2016-11-13T05:56:16.107Z,0
2016-11-13T05:57:30.470Z,0
2016-11-13T05:58:44.888Z,0
2016-11-13T05:59:59.010Z,0
2016-11-13T06:01:10.755Z,0
2016-11-13T06:02:25.478Z,0
2016-11-13T06:03:38.592Z,0
2016-11-13T06:04:51.698Z,0
2016-11-13T06:06:08.062Z,0
2016-11-13T06:07:22.309Z,0
2016-11-13T06:08:35.658Z,0
2016-11-13T06:09:48.553Z,0
2016-11-13T06:11:03.464Z,0
2016-11-13T06:12:15.051Z,0
2016-11-13T06:13:26.946Z,4
2016-11-13T06:14:42.021Z,4
2016-11-13T06:15:56.360Z,0
2016-11-13T06:17:11.010Z,4
2016-11-13T06:18:25.691Z,4
2016-11-13T06:19:41.738Z,4
2016-11-13T06:20:54.864Z,4
2016-11-13T06:22:09.827Z,8
2016-11-13T06:23:21.493Z,12
2016-11-13T06:24:34.402Z,8
2016-11-13T06:25:49.193Z,16
2016-11-13T06:27:04.036Z,16
2016-11-13T06:28:20.264Z,16
2016-11-13T06:29:32.218Z,24
2016-11-13T06:30:46.301Z,28
2016-11-13T06:32:01.268Z,32
2016-11-13T06:33:12.869Z,40
2016-11-13T06:34:27.233Z,48
2016-11-13T06:35:40.011Z,56
2016-11-13T06:36:51.666Z,64
2016-11-13T06:38:07.905Z,76
2016-11-13T06:39:23.594Z,84
2016-11-13T06:40:38.343Z,92
2016-11-13T06:41:54.145Z,96
2016-11-13T06:43:07.151Z,104
2016-11-13T06:44:21.189Z,116
2016-11-13T06:45:35.609Z,132
2016-11-13T06:46:51.646Z,148
2016-11-13T06:48:04.805Z,164
2016-11-13T06:49:20.536Z,184
2016-11-13T06:50:34.031Z,204
2016-11-13T06:51:49.919Z,228
2016-11-13T06:53:04.115Z,256
2016-11-13T06:54:18.720Z,284
2016-11-13T06:55:32.889Z,312
2016-11-13T06:56:46.061Z,336
2016-11-13T06:58:01.895Z,360
2016-11-13T06:59:13.173Z,376
2016-11-13T07:00:27.757Z,400
2016-11-13T07:01:43.658Z,436
2016-11-13T07:02:57.915Z,468
2016-11-13T07:04:13.621Z,500
2016-11-13T07:05:26.411Z,524
2016-11-13T07:06:41.310Z,548
2016-11-13T07:07:54.423Z,576
2016-11-13T07:09:05.861Z,608
2016-11-13T07:10:21.863Z,640
2016-11-13T07:11:36.258Z,664
2016-11-13T07:12:49.501Z,692
2016-11-13T07:14:05.528Z,720
2016-11-13T07:15:21.466Z,748
2016-11-13T07:16:36.670Z,768
2016-11-13T07:17:51.081Z,792
2016-11-13T07:19:06.593Z,812
2016-11-13T07:20:20.789Z,800
2016-11-13T07:21:35.227Z,784
2016-11-13T07:22:50.916Z,784
2016-11-13T07:24:03.887Z,796
2016-11-13T07:25:16.926Z,832
2016-11-13T07:26:28.192Z,892
2016-11-13T07:27:44.561Z,972
2016-11-13T07:28:58.712Z,1052
2016-11-13T07:30:14.727Z,1128
2016-11-13T07:31:30.786Z,1172
2016-11-13T07:32:47.002Z,1232
2016-11-13T07:34:01.256Z,1324
2016-11-13T07:35:16.898Z,1460
2016-11-13T07:36:31.461Z,1620
2016-11-13T07:37:42.769Z,1764
2016-11-13T07:38:55.656Z,1892
2016-11-13T07:40:10.456Z,2004
2016-11-13T07:41:21.843Z,2076
2016-11-13T07:42:33.748Z,2112
2016-11-13T07:43:48.306Z,2128
2016-11-13T07:45:01.194Z,2124
2016-11-13T07:46:17.752Z,2128
2016-11-13T07:47:32.314Z,2152
2016-11-13T07:48:47.106Z,2168
2016-11-13T07:49:59.917Z,2164
2016-11-13T07:51:16.607Z,2148
2016-11-13T07:52:32.083Z,2140
2016-11-13T07:53:48.291Z,2132
2016-11-13T07:55:04.506Z,2132
2016-11-13T07:56:20.389Z,2144
2016-11-13T07:57:36.231Z,2160
2016-11-13T07:58:52.437Z,2184
2016-11-13T08:00:06.592Z,2208
2016-11-13T08:01:22.779Z,2244
2016-11-13T08:02:39.315Z,2300
2016-11-13T08:03:51.159Z,2384
2016-11-13T08:05:07.177Z,2492
2016-11-13T08:06:23.421Z,2604
2016-11-13T08:07:34.933Z,2696
2016-11-13T08:08:49.474Z,2772
2016-11-13T08:10:04.359Z,2820
2016-11-13T08:11:19.013Z,2852
2016-11-13T08:12:35.222Z,2880
2016-11-13T08:13:51.496Z,2892
2016-11-13T08:15:03.333Z,2900
2016-11-13T08:16:17.976Z,2900
2016-11-13T08:17:34.230Z,2900
2016-11-13T08:18:49.016Z,2904
2016-11-13T08:20:03.753Z,2932
2016-11-13T08:21:16.502Z,2992
2016-11-13T08:22:30.733Z,3092
2016-11-13T08:23:43.865Z,3220
2016-11-13T08:24:57.129Z,3372
2016-11-13T08:26:11.697Z,3536
2016-11-13T08:27:26.290Z,3708
2016-11-13T08:28:42.455Z,3884
2016-11-13T08:29:59.232Z,4060
2016-11-13T08:31:13.297Z,4228
2016-11-13T08:32:28.970Z,4364
2016-11-13T08:33:43.465Z,4460
2016-11-13T08:34:59.344Z,4516
2016-11-13T08:36:13.440Z,4532
2016-11-13T08:37:29.770Z,4548
2016-11-13T08:38:46.306Z,4572
2016-11-13T08:40:02.250Z,4592
2016-11-13T08:41:16.093Z,4616
2016-11-13T08:42:30.642Z,4656
2016-11-13T08:43:47.145Z,4712
2016-11-13T08:45:01.627Z,4768
2016-11-13T08:46:17.436Z,4812
2016-11-13T08:47:32.420Z,4844
2016-11-13T08:48:48.292Z,4864
2016-11-13T08:50:04.618Z,4848
2016-11-13T08:51:17.951Z,4812
2016-11-13T08:52:33.262Z,4784
2016-11-13T08:53:48.049Z,4760
2016-11-13T08:55:02.667Z,4732
2016-11-13T08:56:15.548Z,4716
2016-11-13T08:57:29.912Z,4724
2016-11-13T08:58:46.331Z,4772
2016-11-13T09:00:00.898Z,4832
2016-11-13T09:01:15.890Z,4872
2016-11-13T09:02:29.938Z,4900
2016-11-13T09:03:42.925Z,4896
2016-11-13T09:04:57.264Z,4840
2016-11-13T09:06:11.593Z,4784
2016-11-13T09:07:27.075Z,4764
2016-11-13T09:08:41.293Z,4776
2016-11-13T09:09:56.867Z,4832
2016-11-13T09:11:12.909Z,4908
2016-11-13T09:12:25.791Z,4988
2016-11-13T09:13:38.435Z,5060
2016-11-13T09:14:54.123Z,5116
2016-11-13T09:16:10.132Z,5172
2016-11-13T09:17:23.855Z,5224
2016-11-13T09:18:39.819Z,5280
2016-11-13T09:19:55.666Z,5320
2016-11-13T09:21:08.616Z,5360
2016-11-13T09:22:24.423Z,5400
2016-11-13T09:23:38.996Z,5420
2016-11-13T09:24:55.003Z,5448
2016-11-13T09:26:09.641Z,5496
2016-11-13T09:27:24.223Z,5588
2016-11-13T09:28:40.624Z,5744
2016-11-13T09:29:56.280Z,5956
2016-11-13T09:31:09.183Z,6220
2016-11-13T09:32:23.749Z,6524
2016-11-13T09:33:37.045Z,6844
2016-11-13T09:34:53.596Z,7148
2016-11-13T09:36:07.991Z,7384
2016-11-13T09:37:21.324Z,7588
2016-11-13T09:38:35.362Z,7860
2016-11-13T09:39:51.381Z,8164
2016-11-13T09:41:05.933Z,8432
2016-11-13T09:42:19.120Z,8616
2016-11-13T09:43:35.691Z,8752
2016-11-13T09:44:50.578Z,8876
2016-11-13T09:46:06.369Z,9012
2016-11-13T09:47:22.492Z,9136
2016-11-13T09:48:38.805Z,9300
2016-11-13T09:49:52.141Z,9640
2016-11-13T09:51:07.431Z,9724
2016-11-13T09:52:20.764Z,9816
2016-11-13T09:53:34.502Z,9508
2016-11-13T09:54:47.592Z,9240
2016-11-13T09:56:02.506Z,8940
2016-11-13T09:57:17.106Z,8648
2016-11-13T09:58:31.567Z,8440
2016-11-13T09:59:46.375Z,8292
2016-11-13T10:01:00.766Z,8200
2016-11-13T10:02:13.640Z,8148
2016-11-13T10:03:27.885Z,8116
2016-11-13T10:04:43.631Z,8080
2016-11-13T10:05:59.269Z,8024
2016-11-13T10:07:15.227Z,7912
2016-11-13T10:08:30.397Z,7780
2016-11-13T10:09:46.177Z,7632
2016-11-13T10:11:01.657Z,7476
2016-11-13T10:12:17.691Z,7324
2016-11-13T10:13:31.948Z,7168
2016-11-13T10:14:47.611Z,7020
2016-11-13T10:16:03.919Z,6912
2016-11-13T10:17:18.127Z,6844
2016-11-13T10:18:32.760Z,6836
2016-11-13T10:19:47.381Z,6868
2016-11-13T10:21:03.436Z,6900
2016-11-13T10:22:18.469Z,6960
2016-11-13T10:23:35.318Z,7036
2016-11-13T10:24:51.381Z,7120
2016-11-13T10:26:07.047Z,7248
2016-11-13T10:27:21.774Z,7368
2016-11-13T10:28:37.281Z,7496
2016-11-13T10:29:52.225Z,7628
2016-11-13T10:31:06.829Z,7780
2016-11-13T10:32:22.383Z,7960
2016-11-13T10:33:36.548Z,8116
2016-11-13T10:34:48.125Z,8168
2016-11-13T10:36:02.521Z,8244
2016-11-13T10:37:17.807Z,8360
2016-11-13T10:38:33.614Z,8504
2016-11-13T10:39:47.802Z,8660
2016-11-13T10:41:02.156Z,8816
2016-11-13T10:42:15.084Z,8976
2016-11-13T10:43:29.926Z,9120
2016-11-13T10:44:44.570Z,9220
2016-11-13T10:45:59.871Z,9240
2016-11-13T10:47:15.740Z,9240
2016-11-13T10:48:29.247Z,9212
2016-11-13T10:49:44.431Z,9160
2016-11-13T10:50:59.941Z,9080
2016-11-13T10:52:14.918Z,8984
2016-11-13T10:53:28.159Z,8904
2016-11-13T10:54:44.583Z,8812
2016-11-13T10:55:59.012Z,8716
2016-11-13T10:57:13.956Z,8624
2016-11-13T10:58:30.577Z,8552
2016-11-13T10:59:43.705Z,8492
2016-11-13T11:01:00.163Z,8436
2016-11-13T11:02:12.946Z,8380
2016-11-13T11:03:25.904Z,8344
2016-11-13T11:04:39.123Z,8308
2016-11-13T11:05:55.382Z,8284
2016-11-13T11:07:08.929Z,8260
2016-11-13T11:08:21.938Z,8252
2016-11-13T11:09:33.525Z,8244
2016-11-13T11:10:48.274Z,8240
2016-11-13T11:12:05.060Z,8240
2016-11-13T11:13:21.064Z,8232
2016-11-13T11:14:34.357Z,8224
2016-11-13T11:15:50.408Z,8204
2016-11-13T11:17:05.350Z,8164
2016-11-13T11:18:20.844Z,8108
2016-11-13T11:19:34.664Z,8024
2016-11-13T11:20:50.788Z,7920
2016-11-13T11:22:07.246Z,7792
2016-11-13T11:23:22.218Z,7652
2016-11-13T11:24:37.868Z,7528
2016-11-13T11:25:53.722Z,7428
2016-11-13T11:27:09.243Z,7372
2016-11-13T11:28:23.777Z,7360
2016-11-13T11:29:37.813Z,7384
2016-11-13T11:30:53.710Z,7416
2016-11-13T11:32:09.969Z,7452
2016-11-13T11:33:26.398Z,7492
2016-11-13T11:34:39.587Z,7532
2016-11-13T11:35:55.458Z,7568
2016-11-13T11:37:10.971Z,7608
2016-11-13T11:38:23.758Z,7648
2016-11-13T11:39:39.793Z,7692
2016-11-13T11:40:56.180Z,7736
2016-11-13T11:42:11.839Z,7776
2016-11-13T11:43:28.040Z,7820
2016-11-13T11:44:42.678Z,7860
2016-11-13T11:45:57.848Z,7908
2016-11-13T11:47:13.193Z,7956
2016-11-13T11:48:27.855Z,7988
2016-11-13T11:49:40.573Z,7988
2016-11-13T11:50:56.225Z,7968
2016-11-13T11:52:10.512Z,7924
2016-11-13T11:53:23.285Z,7912
2016-11-13T11:54:39.086Z,7924
2016-11-13T11:55:54.888Z,7960
2016-11-13T11:57:07.470Z,7980
2016-11-13T11:58:23.135Z,7936
2016-11-13T11:59:38.612Z,7804
2016-11-13T12:00:54.548Z,7636
2016-11-13T12:02:08.815Z,7500
2016-11-13T12:03:20.990Z,7392
2016-11-13T12:04:36.725Z,7312
2016-11-13T12:05:51.123Z,7252
2016-11-13T12:07:05.254Z,7204
2016-11-13T12:08:18.771Z,7156
2016-11-13T12:09:34.430Z,7092
2016-11-13T12:10:49.587Z,7016
2016-11-13T12:12:03.792Z,6928
2016-11-13T12:13:19.445Z,6828
2016-11-13T12:14:33.518Z,6720
2016-11-13T12:15:47.809Z,6588
2016-11-13T12:17:02.721Z,6432
2016-11-13T12:18:17.612Z,6264
2016-11-13T12:19:28.945Z,6120
2016-11-13T12:20:44.642Z,5988
2016-11-13T12:22:00.879Z,5876
2016-11-13T12:23:13.489Z,5800
2016-11-13T12:24:26.536Z,5740
2016-11-13T12:25:42.019Z,5708
2016-11-13T12:26:57.110Z,5704
2016-11-13T12:28:12.122Z,5724
2016-11-13T12:29:25.556Z,5780
2016-11-13T12:30:41.408Z,5868
2016-11-13T12:31:55.522Z,5944
2016-11-13T12:33:09.979Z,5980
2016-11-13T12:34:26.181Z,5976
2016-11-13T12:35:41.646Z,5944
2016-11-13T12:36:56.680Z,5904
2016-11-13T12:38:13.168Z,5856
2016-11-13T12:39:27.667Z,5804
2016-11-13T12:40:43.870Z,5720
2016-11-13T12:41:55.236Z,5620
2016-11-13T12:43:11.954Z,5516
2016-11-13T12:44:28.367Z,5412
2016-11-13T12:45:42.562Z,5316
2016-11-13T12:46:58.753Z,5228
2016-11-13T12:48:13.296Z,5164
2016-11-13T12:49:24.656Z,5112
2016-11-13T12:50:38.743Z,5052
2016-11-13T12:51:52.828Z,4980
2016-11-13T12:53:08.853Z,4928
2016-11-13T12:54:23.184Z,4892
2016-11-13T12:55:36.212Z,4872
2016-11-13T12:56:51.944Z,4852
2016-11-13T12:58:06.717Z,4824
2016-11-13T12:59:21.170Z,4788
2016-11-13T13:00:35.401Z,4744
2016-11-13T13:01:49.644Z,4696
2016-11-13T13:03:02.550Z,4644
2016-11-13T13:04:17.625Z,4592
2016-11-13T13:05:33.725Z,4552
2016-11-13T13:06:47.929Z,4496
2016-11-13T13:08:04.143Z,4456
2016-11-13T13:09:18.523Z,4420
2016-11-13T13:10:33.281Z,4400
2016-11-13T13:11:49.549Z,4372
2016-11-13T13:13:05.233Z,4336
2016-11-13T13:14:19.581Z,4292
2016-11-13T13:15:34.443Z,4236
2016-11-13T13:16:48.542Z,4188
2016-11-13T13:18:03.294Z,4140
2016-11-13T13:19:19.156Z,4104
2016-11-13T13:20:34.980Z,4072
2016-11-13T13:21:51.373Z,4052
2016-11-13T13:23:07.682Z,4020
2016-11-13T13:24:23.576Z,3980
2016-11-13T13:25:38.894Z,3920
2016-11-13T13:26:53.392Z,3852
2016-11-13T13:28:09.787Z,3768
2016-11-13T13:29:25.944Z,3680
2016-11-13T13:30:40.582Z,3592
2016-11-13T13:31:55.362Z,3512
2016-11-13T13:33:09.811Z,3436
2016-11-13T13:34:26.389Z,3364
2016-11-13T13:35:41.167Z,3304
2016-11-13T13:36:55.548Z,3256
2016-11-13T13:38:11.431Z,3208
2016-11-13T13:39:25.074Z,3168
2016-11-13T13:40:40.369Z,3136
2016-11-13T13:41:56.030Z,3104
2016-11-13T13:43:11.485Z,3076
2016-11-13T13:44:27.352Z,3052
2016-11-13T13:45:43.554Z,3028
2016-11-13T13:46:57.362Z,3000
2016-11-13T13:48:10.161Z,2968
2016-11-13T13:49:23.238Z,2936
2016-11-13T13:50:37.709Z,2888
2016-11-13T13:51:53.732Z,2840
2016-11-13T13:53:08.540Z,2780
2016-11-13T13:54:22.633Z,2724
2016-11-13T13:55:37.210Z,2660
2016-11-13T13:56:52.006Z,2604
2016-11-13T13:58:06.665Z,2544
2016-11-13T13:59:20.907Z,2492
2016-11-13T14:00:35.124Z,2444
2016-11-13T14:01:49.384Z,2396
2016-11-13T14:03:05.272Z,2344
2016-11-13T14:04:19.489Z,2296
2016-11-13T14:05:32.626Z,2244
2016-11-13T14:06:47.460Z,2196
2016-11-13T14:08:03.337Z,2148
2016-11-13T14:09:19.206Z,2104
2016-11-13T14:10:34.188Z,2064
2016-11-13T14:11:48.429Z,2028
2016-11-13T14:13:03.167Z,1988
2016-11-13T14:14:17.333Z,1948
2016-11-13T14:15:33.359Z,1904
2016-11-13T14:16:47.632Z,1864
2016-11-13T14:18:04.017Z,1820
2016-11-13T14:19:20.066Z,1776
2016-11-13T14:20:33.159Z,1740
2016-11-13T14:21:48.966Z,1700
2016-11-13T14:23:03.035Z,1660
2016-11-13T14:24:16.310Z,1624
2016-11-13T14:25:32.401Z,1584
2016-11-13T14:26:45.329Z,1548
2016-11-13T14:28:01.701Z,1516
2016-11-13T14:29:17.560Z,1488
2016-11-13T14:30:30.609Z,1456
2016-11-13T14:31:43.732Z,1432
2016-11-13T14:32:59.637Z,1408
2016-11-13T14:34:13.634Z,1388
2016-11-13T14:35:28.018Z,1364
2016-11-13T14:36:43.879Z,1344
2016-11-13T14:37:57.005Z,1328
2016-11-13T14:39:11.209Z,1308
2016-11-13T14:40:25.504Z,1288
2016-11-13T14:41:38.500Z,1272
2016-11-13T14:42:50.028Z,1252
2016-11-13T14:44:04.800Z,1240
2016-11-13T14:45:19.282Z,1216
2016-11-13T14:46:35.669Z,1196
2016-11-13T14:47:50.485Z,1176
2016-11-13T14:49:05.704Z,1156
2016-11-13T14:50:19.917Z,1132
2016-11-13T14:51:35.804Z,1112
2016-11-13T14:52:47.667Z,1088
2016-11-13T14:54:00.640Z,1068
2016-11-13T14:55:15.312Z,1044
2016-11-13T14:56:31.346Z,1024
2016-11-13T14:57:44.845Z,1000
2016-11-13T14:58:57.735Z,972
2016-11-13T15:00:13.763Z,952
2016-11-13T15:01:29.599Z,928
2016-11-13T15:02:44.343Z,904
2016-11-13T15:04:00.205Z,884
2016-11-13T15:05:16.226Z,860
2016-11-13T15:06:30.796Z,832
2016-11-13T15:07:46.568Z,812
2016-11-13T15:09:01.022Z,792
2016-11-13T15:10:15.449Z,772
2016-11-13T15:11:30.963Z,748
2016-11-13T15:12:46.029Z,732
2016-11-13T15:14:01.868Z,712
2016-11-13T15:15:16.609Z,688
2016-11-13T15:16:32.330Z,668
2016-11-13T15:17:48.005Z,648
2016-11-13T15:19:01.029Z,628
2016-11-13T15:20:17.207Z,604
2016-11-13T15:21:30.460Z,580
2016-11-13T15:22:46.793Z,556
2016-11-13T15:24:02.464Z,532
2016-11-13T15:25:17.046Z,508
2016-11-13T15:26:32.692Z,484
2016-11-13T15:27:48.742Z,456
2016-11-13T15:29:04.940Z,432
2016-11-13T15:30:17.829Z,404
2016-11-13T15:31:31.840Z,380
2016-11-13T15:32:47.598Z,360
2016-11-13T15:34:02.359Z,332
2016-11-13T15:35:15.206Z,308
2016-11-13T15:36:31.227Z,280
2016-11-13T15:37:45.838Z,256
2016-11-13T15:39:02.635Z,232
2016-11-13T15:40:16.137Z,212
2016-11-13T15:41:30.396Z,192
2016-11-13T15:42:46.268Z,172
2016-11-13T15:44:01.975Z,152
2016-11-13T15:45:17.346Z,140
2016-11-13T15:46:33.617Z,120
2016-11-13T15:47:48.616Z,104
2016-11-13T15:49:00.215Z,96
2016-11-13T15:50:16.435Z,80
2016-11-13T15:51:31.337Z,72
2016-11-13T15:52:45.615Z,60
2016-11-13T15:54:01.851Z,52
2016-11-13T15:55:13.430Z,44
2016-11-13T15:56:28.211Z,36
2016-11-13T15:57:44.232Z,28
2016-11-13T15:59:00.400Z,24
2016-11-13T16:00:14.578Z,20
2016-11-13T16:01:28.755Z,16
2016-11-13T16:02:43.678Z,12
2016-11-13T16:03:58.536Z,8
2016-11-13T16:05:14.015Z,8
2016-11-13T16:06:29.914Z,4
2016-11-13T16:07:44.709Z,4
2016-11-13T16:08:59.410Z,4
2016-11-13T16:10:13.030Z,4
2016-11-13T16:11:29.280Z,0
2016-11-13T16:12:42.767Z,4
2016-11-13T16:13:58.662Z,4
2016-11-13T16:15:10.022Z,0
2016-11-13T16:16:26.251Z,0
2016-11-13T16:17:42.496Z,0
2016-11-13T16:18:55.459Z,0
2016-11-13T16:20:11.872Z,0
2016-11-13T16:21:27.191Z,0
2016-11-13T16:22:43.736Z,0
2016-11-13T16:23:57.940Z,0
2016-11-13T16:25:14.126Z,0
2016-11-13T16:26:28.193Z,0
2016-11-13T16:27:44.686Z,0
2016-11-13T16:29:00.562Z,0
2016-11-13T16:30:17.132Z,0
2016-11-13T16:31:34.097Z,0
2016-11-13T16:32:50.017Z,0
2016-11-13T16:34:02.570Z,0
2016-11-13T16:35:17.186Z,0
2016-11-13T16:36:33.472Z,0
2016-11-13T16:37:47.683Z,0
2016-11-13T16:39:03.195Z,0
2016-11-13T16:40:18.560Z,0
2016-11-13T16:41:30.235Z,0
2016-11-13T16:42:44.454Z,0
2016-11-13T16:43:55.998Z,0
2016-11-13T16:45:10.749Z,0
2016-11-13T16:46:26.958Z,0
2016-11-13T16:47:42.773Z,0
2016-11-13T16:48:58.533Z,0
2016-11-13T16:50:13.538Z,0
2016-11-13T16:51:29.193Z,0
2016-11-13T16:52:45.432Z,0
2016-11-13T16:53:59.484Z,0
2016-11-13T16:55:12.705Z,0
2016-11-13T16:56:27.846Z,0
2016-11-13T16:57:43.559Z,0
2016-11-13T16:58:59.459Z,0
2016-11-13T17:00:15.659Z,0
2016-11-13T17:01:30.402Z,0
2016-11-13T17:02:44.049Z,0
2016-11-13T17:03:58.650Z,0
2016-11-13T17:05:14.331Z,0
2016-11-13T17:06:30.001Z,0
2016-11-13T17:07:46.224Z,0
2016-11-13T17:08:59.594Z,0
2016-11-13T17:10:15.482Z,0
2016-11-13T17:11:30.807Z,0
2016-11-13T17:12:43.705Z,0
2016-11-13T17:13:57.805Z,20
2016-11-13T17:15:13.324Z,20
2016-11-13T17:16:29.162Z,20
2016-11-13T17:17:45.191Z,20
2016-11-13T17:18:58.151Z,20
2016-11-13T17:20:12.420Z,24
2016-11-13T17:21:28.174Z,20
2016-11-13T17:22:44.292Z,20
2016-11-13T17:23:58.678Z,24
2016-11-13T17:25:11.236Z,20
2016-11-13T17:26:25.033Z,0